createdAt,value
2018-11-11T00:00:58.787Z,255.57
2018-11-11T00:03:26.177Z,261.47
2018-11-11T00:05:53.565Z,259.53
2018-11-11T00:08:20.992Z,282.73
2018-11-11T00:10:48.398Z,259.30
2018-11-11T00:13:15.766Z,270.67
2018-11-11T00:15:43.158Z,250.17
2018-11-11T00:18:10.549Z,262.90
2018-11-11T00:20:37.970Z,261.70
2018-11-11T00:23:05.391Z,265.13
2018-11-11T00:25:33.054Z,256.80
2018-11-11T00:28:00.439Z,264.17
2018-11-11T00:30:27.790Z,257.37
2018-11-11T00:32:55.188Z,256.97
2018-11-11T00:35:22.544Z,265.37
2018-11-11T00:37:50.003Z,292.87
2018-11-11T00:40:17.387Z,289.50
2018-11-11T00:42:45.313Z,265.43
2018-11-11T00:45:13.608Z,261.90
2018-11-11T00:47:42.514Z,253.97
2018-11-11T00:50:16.483Z,251.87
2018-11-11T00:52:44.467Z,246.77
2018-11-11T00:55:13.589Z,253.90
2018-11-11T00:57:41.425Z,242.43
2018-11-11T01:00:11.861Z,245.17
2018-11-11T01:02:39.438Z,245.30
2018-11-11T01:05:07.572Z,248.83
2018-11-11T01:07:35.283Z,244.23
2018-11-11T01:10:02.960Z,258.00
2018-11-11T01:12:30.514Z,239.63
2018-11-11T01:14:57.869Z,249.37
2018-11-11T01:17:27.690Z,261.47
2018-11-11T01:19:55.093Z,248.40
2018-11-11T01:22:22.865Z,265.13
2018-11-11T01:24:50.245Z,249.40
2018-11-11T01:27:20.246Z,267.47
2018-11-11T01:29:54.895Z,245.37
2018-11-11T01:32:29.202Z,268.23
2018-11-11T01:34:56.962Z,258.70
2018-11-11T01:37:24.273Z,254.90
2018-11-11T01:39:51.657Z,256.23
2018-11-11T01:42:19.019Z,264.17
2018-11-11T01:44:46.397Z,257.70
2018-11-11T01:47:13.780Z,259.40
2018-11-11T01:49:41.213Z,250.87
2018-11-11T01:52:08.598Z,257.90
2018-11-11T01:54:35.987Z,263.50
2018-11-11T01:57:03.322Z,246.17
2018-11-11T01:59:30.698Z,261.10
2018-11-11T02:01:58.494Z,251.93
2018-11-11T02:04:25.882Z,256.43
2018-11-11T02:06:53.320Z,250.73
2018-11-11T02:09:20.695Z,255.07
2018-11-11T02:11:48.086Z,253.13
2018-11-11T02:14:15.432Z,257.43
2018-11-11T02:16:42.858Z,250.20
2018-11-11T02:19:10.258Z,254.70
2018-11-11T02:21:37.630Z,262.50
2018-11-11T02:24:04.949Z,255.97
2018-11-11T02:26:32.310Z,246.97
2018-11-11T02:28:59.658Z,257.97
2018-11-11T02:31:27.050Z,244.73
2018-11-11T02:33:54.377Z,253.70
2018-11-11T02:36:21.796Z,250.00
2018-11-11T02:38:49.144Z,250.33
2018-11-11T02:41:16.509Z,245.33
2018-11-11T02:43:43.887Z,261.00
2018-11-11T02:46:11.245Z,244.67
2018-11-11T02:48:38.614Z,263.00
2018-11-11T02:51:06.036Z,260.10
2018-11-11T02:53:33.424Z,257.00
2018-11-11T02:56:00.765Z,238.77
2018-11-11T02:58:28.111Z,258.33
2018-11-11T03:01:03.503Z,226.47
2018-11-11T03:03:32.794Z,248.63
2018-11-11T03:06:00.291Z,233.00
2018-11-11T03:11:05.094Z,230.87
2018-11-11T03:13:32.426Z,243.77
2018-11-11T03:15:59.783Z,224.03
2018-11-11T03:18:27.087Z,247.53
2018-11-11T03:20:54.423Z,238.57
2018-11-11T03:23:21.802Z,249.27
2018-11-11T03:25:49.212Z,225.13
2018-11-11T03:28:16.551Z,247.13
2018-11-11T03:30:43.900Z,229.40
2018-11-11T03:33:11.256Z,234.63
2018-11-11T03:35:38.618Z,240.63
2018-11-11T03:38:06.073Z,240.00
2018-11-11T03:40:33.426Z,225.97
2018-11-11T03:43:00.744Z,245.70
2018-11-11T03:45:28.151Z,223.73
2018-11-11T03:47:55.486Z,234.27
2018-11-11T03:50:22.868Z,238.73
2018-11-11T03:52:50.353Z,233.03
2018-11-11T03:55:17.844Z,245.60
2018-11-11T03:57:45.236Z,219.47
2018-11-11T04:00:13.781Z,236.03
2018-11-11T04:02:41.114Z,235.43
2018-11-11T04:05:09.370Z,229.67
2018-11-11T04:07:36.901Z,226.30
2018-11-11T04:10:05.800Z,228.70
2018-11-11T04:12:33.218Z,220.47
2018-11-11T04:15:00.781Z,222.53
2018-11-11T04:17:28.139Z,201.33
2018-11-11T04:19:55.483Z,236.10
2018-11-11T04:22:23.257Z,234.23
2018-11-11T04:24:51.728Z,227.27
2018-11-11T04:27:19.467Z,219.37
2018-11-11T04:29:46.854Z,222.27
2018-11-11T04:32:14.141Z,222.03
2018-11-11T04:34:42.429Z,227.87
2018-11-11T04:37:12.500Z,221.27
2018-11-11T04:39:40.338Z,215.90
2018-11-11T04:42:07.717Z,220.00
2018-11-11T04:44:36.305Z,219.43
2018-11-11T04:47:03.686Z,218.80
2018-11-11T04:49:30.988Z,215.53
2018-11-11T04:51:58.607Z,218.67
2018-11-11T04:54:25.949Z,214.30
2018-11-11T04:56:53.279Z,209.27
2018-11-11T04:59:20.803Z,216.07
2018-11-11T05:01:48.625Z,208.57
2018-11-11T05:04:15.987Z,227.10
2018-11-11T05:06:43.343Z,211.97
2018-11-11T05:09:12.262Z,219.57
2018-11-11T05:11:39.766Z,213.87
2018-11-11T05:14:07.177Z,223.17
2018-11-11T05:16:34.520Z,208.17
2018-11-11T05:19:01.933Z,210.80
2018-11-11T05:21:29.242Z,204.53
2018-11-11T05:23:56.626Z,220.40
2018-11-11T05:26:23.951Z,209.47
2018-11-11T05:28:51.298Z,228.87
2018-11-11T05:31:19.233Z,203.50
2018-11-11T05:33:46.521Z,215.93
2018-11-11T05:36:13.870Z,206.87
2018-11-11T05:38:41.307Z,217.43
2018-11-11T05:41:08.618Z,205.43
2018-11-11T05:43:36.013Z,224.90
2018-11-11T05:46:03.426Z,224.00
2018-11-11T05:48:30.785Z,220.77
2018-11-11T05:50:58.170Z,206.33
2018-11-11T05:53:25.556Z,220.60
2018-11-11T05:55:52.927Z,203.33
2018-11-11T05:58:20.326Z,225.20
2018-11-11T06:00:48.106Z,219.13
2018-11-11T06:03:15.465Z,226.97
2018-11-11T06:05:42.879Z,201.37
2018-11-11T06:08:10.274Z,216.97
2018-11-11T06:10:37.585Z,203.67
2018-11-11T06:13:04.970Z,209.60
2018-11-11T06:15:32.363Z,211.60
2018-11-11T06:17:59.677Z,209.47
2018-11-11T06:20:27.206Z,192.93
2018-11-11T06:22:55.668Z,202.70
2018-11-11T06:25:26.561Z,214.10
2018-11-11T06:27:54.056Z,202.13
2018-11-11T06:30:22.562Z,206.00
2018-11-11T06:32:49.958Z,207.23
2018-11-11T06:37:51.499Z,201.87
2018-11-11T06:40:18.813Z,203.17
2018-11-11T06:42:46.342Z,203.97
2018-11-11T06:45:14.645Z,189.63
2018-11-11T06:47:43.266Z,199.70
2018-11-11T06:50:11.555Z,195.50
2018-11-11T06:52:39.809Z,183.80
2018-11-11T06:55:09.111Z,178.33
2018-11-11T06:57:38.333Z,187.53
2018-11-11T07:00:07.262Z,178.93
2018-11-11T07:02:37.704Z,186.23
2018-11-11T07:05:06.111Z,173.37
2018-11-11T07:07:33.609Z,187.00
2018-11-11T07:10:01.046Z,177.43
2018-11-11T07:12:28.582Z,187.37
2018-11-11T07:14:55.898Z,180.43
2018-11-11T07:17:23.314Z,183.47
2018-11-11T07:19:50.712Z,170.97
2018-11-11T07:22:18.095Z,166.67
2018-11-11T07:24:45.737Z,168.63
2018-11-11T07:27:13.056Z,171.83
2018-11-11T07:29:40.364Z,180.00
2018-11-11T07:32:07.730Z,179.43
2018-11-11T07:34:35.045Z,174.40
2018-11-11T07:37:02.391Z,164.27
2018-11-11T07:39:29.843Z,172.93
2018-11-11T07:41:57.214Z,172.63
2018-11-11T07:44:24.618Z,168.63
2018-11-11T07:46:51.935Z,166.17
2018-11-11T07:49:19.507Z,169.63
2018-11-11T07:51:46.814Z,169.40
2018-11-11T07:54:14.480Z,172.90
2018-11-11T07:56:41.822Z,163.13
2018-11-11T07:59:09.274Z,171.23
2018-11-11T08:01:36.694Z,169.37
2018-11-11T08:04:04.029Z,171.17
2018-11-11T08:06:31.745Z,175.30
2018-11-11T08:08:59.048Z,176.47
2018-11-11T08:11:38.363Z,196.43
2018-11-11T08:14:05.977Z,185.37
2018-11-11T08:16:34.861Z,187.87
2018-11-11T08:19:06.338Z,190.13
2018-11-11T08:21:34.950Z,181.73
2018-11-11T08:24:03.013Z,189.80
2018-11-11T08:26:30.502Z,185.07
2018-11-11T08:28:58.569Z,194.00
2018-11-11T08:31:26.266Z,177.23
2018-11-11T08:33:53.601Z,182.90
2018-11-11T08:36:21.018Z,180.20
2018-11-11T08:38:48.409Z,197.30
2018-11-11T08:41:15.986Z,195.17
2018-11-11T08:43:43.350Z,195.63
2018-11-11T08:46:11.498Z,191.83
2018-11-11T08:48:39.194Z,192.50
2018-11-11T08:51:08.790Z,186.40
2018-11-11T08:53:36.525Z,206.47
2018-11-11T08:56:06.777Z,185.70
2018-11-11T09:01:11.232Z,183.27
2018-11-11T09:03:42.170Z,194.63
2018-11-11T09:06:11.131Z,187.80
2018-11-11T09:08:38.496Z,203.47
2018-11-11T09:11:09.921Z,197.10
2018-11-11T09:13:42.173Z,204.93
2018-11-11T09:16:29.529Z,193.40
2018-11-11T09:19:01.265Z,189.50
2018-11-11T09:21:29.163Z,183.97
2018-11-11T09:23:56.474Z,189.53
2018-11-11T09:26:23.854Z,205.57
2018-11-11T09:28:51.215Z,199.03
2018-11-11T09:31:18.555Z,190.53
2018-11-11T09:33:45.999Z,201.70
2018-11-11T09:36:13.550Z,204.30
2018-11-11T09:38:40.919Z,201.30
2018-11-11T09:41:08.777Z,187.80
2018-11-11T09:43:36.494Z,205.23
2018-11-11T09:46:03.964Z,196.47
2018-11-11T09:48:31.354Z,204.53
2018-11-11T09:50:58.731Z,192.90
2018-11-11T09:53:26.229Z,213.13
2018-11-11T09:55:53.581Z,187.13
2018-11-11T09:58:20.980Z,199.07
2018-11-11T10:00:50.414Z,197.20
2018-11-11T10:04:26.058Z,197.00
2018-11-11T10:06:59.251Z,187.30
2018-11-11T10:10:37.198Z,194.97
2018-11-11T10:13:17.423Z,201.90
2018-11-11T10:17:53.464Z,184.20
2018-11-11T10:20:40.601Z,186.33
2018-11-11T10:23:17.761Z,203.00
2018-11-11T10:26:08.657Z,192.37
2018-11-11T10:28:46.664Z,196.97
2018-11-11T10:31:19.745Z,196.00
2018-11-11T10:33:54.428Z,199.63
2018-11-11T10:36:26.449Z,187.77
2018-11-11T10:38:59.931Z,199.03
2018-11-11T10:41:36.207Z,192.57
2018-11-11T10:44:06.908Z,189.67
2018-11-11T10:47:05.629Z,189.10
2018-11-11T10:49:37.423Z,192.13
2018-11-11T10:52:05.057Z,194.60
2018-11-11T10:54:32.732Z,200.33
2018-11-11T10:57:00.057Z,190.27
2018-11-11T10:59:27.359Z,200.77
2018-11-11T11:02:03.797Z,196.13
2018-11-11T11:04:31.261Z,205.67
2018-11-11T11:07:04.186Z,189.27
2018-11-11T11:09:31.541Z,200.20
2018-11-11T11:11:58.877Z,187.80
2018-11-11T11:14:26.202Z,187.67
2018-11-11T11:16:53.512Z,194.90
2018-11-11T11:19:21.063Z,191.00
2018-11-11T11:21:50.312Z,186.40
2018-11-11T11:24:17.623Z,190.93
2018-11-11T11:26:44.943Z,196.87
2018-11-11T11:29:12.291Z,195.13
2018-11-11T11:31:39.805Z,190.23
2018-11-11T11:34:07.078Z,186.73
2018-11-11T11:36:34.447Z,193.40
2018-11-11T11:39:01.825Z,181.07
2018-11-11T11:41:29.201Z,184.87
2018-11-11T11:43:56.538Z,189.43
2018-11-11T11:46:23.899Z,195.50
2018-11-11T11:48:51.230Z,186.90
2018-11-11T11:51:19.405Z,186.57
2018-11-11T11:53:46.700Z,199.60
2018-11-11T11:56:14.108Z,192.10
2018-11-11T11:58:41.433Z,188.07
2018-11-11T12:01:09.134Z,178.70
2018-11-11T12:03:36.543Z,195.83
2018-11-11T12:06:03.948Z,185.23
2018-11-11T12:08:31.311Z,187.32
2018-11-11T12:10:58.637Z,184.28
2018-11-11T12:13:25.963Z,189.28
2018-11-11T12:18:32.494Z,188.97
2018-11-11T12:21:03.839Z,186.83
2018-11-11T12:23:33.894Z,181.67
2018-11-11T12:26:04.951Z,187.10
2018-11-11T12:28:35.212Z,189.37
2018-11-11T12:31:03.253Z,196.70
2018-11-11T12:33:33.607Z,199.50
2018-11-11T12:36:07.842Z,178.97
2018-11-11T12:38:36.050Z,193.63
2018-11-11T12:41:05.087Z,187.70
2018-11-11T12:43:33.225Z,202.40
2018-11-11T12:46:00.715Z,201.33
2018-11-11T12:48:28.106Z,196.73
2018-11-11T12:50:55.403Z,184.27
2018-11-11T12:53:25.185Z,189.37
2018-11-11T12:55:54.536Z,173.53
2018-11-11T12:58:24.196Z,191.33
2018-11-11T13:00:51.937Z,177.07
2018-11-11T13:03:19.478Z,203.50
2018-11-11T13:05:46.873Z,188.20
2018-11-11T13:08:14.252Z,206.47
2018-11-11T13:10:41.721Z,181.17
2018-11-11T13:13:09.216Z,194.20
2018-11-11T13:15:36.928Z,178.80
2018-11-11T13:18:04.804Z,196.60
2018-11-11T13:20:32.123Z,185.77
2018-11-11T13:22:59.516Z,192.23
2018-11-11T13:25:26.905Z,186.67
2018-11-11T13:28:00.984Z,182.67
2018-11-11T13:30:30.001Z,174.33
2018-11-11T13:32:57.496Z,182.50
2018-11-11T13:35:25.958Z,172.67
2018-11-11T13:37:53.829Z,178.63
2018-11-11T13:40:21.262Z,181.33
2018-11-11T13:42:48.554Z,189.53
2018-11-11T13:45:17.242Z,180.73
2018-11-11T13:47:45.753Z,168.37
2018-11-11T13:50:27.689Z,179.47
2018-11-11T13:52:55.007Z,182.93
2018-11-11T13:55:22.444Z,174.30
2018-11-11T13:57:50.056Z,177.90
2018-11-11T14:00:19.646Z,173.83
2018-11-11T14:02:47.438Z,181.03
2018-11-11T14:05:15.126Z,173.67
2018-11-11T14:07:42.504Z,170.50
2018-11-11T14:10:11.839Z,184.30
2018-11-11T14:12:39.484Z,203.37
2018-11-11T14:15:17.752Z,174.33
2018-11-11T14:17:45.812Z,170.63
2018-11-11T14:20:14.361Z,169.03
2018-11-11T14:22:42.804Z,182.53
2018-11-11T14:25:13.977Z,181.17
2018-11-11T14:27:41.379Z,167.50
2018-11-11T14:30:16.805Z,183.97
2018-11-11T14:32:44.652Z,188.87
2018-11-11T14:35:12.371Z,171.80
2018-11-11T14:40:16.383Z,180.40
2018-11-11T14:42:44.142Z,168.60
2018-11-11T14:45:12.657Z,184.67
2018-11-11T14:47:40.969Z,174.37
2018-11-11T14:50:09.567Z,166.07
2018-11-11T14:52:37.061Z,167.97
2018-11-11T14:55:13.098Z,170.90
2018-11-11T14:57:40.524Z,165.30
2018-11-11T15:00:10.668Z,162.57
2018-11-11T15:02:38.475Z,164.83
2018-11-11T15:05:07.716Z,162.20
2018-11-11T15:07:35.024Z,159.93
2018-11-11T15:10:02.525Z,164.23
2018-11-11T15:12:29.837Z,160.17
2018-11-11T15:14:57.163Z,159.00
2018-11-11T15:17:24.482Z,161.50
2018-11-11T15:22:25.569Z,155.13
2018-11-11T15:24:52.874Z,157.97
2018-11-11T15:27:20.194Z,154.33
2018-11-11T15:29:51.174Z,158.60
2018-11-11T15:32:18.558Z,160.17
2018-11-11T15:34:45.908Z,156.33
2018-11-11T15:37:13.231Z,158.87
2018-11-11T15:39:40.757Z,157.53
2018-11-11T15:42:08.184Z,154.10
2018-11-11T15:44:35.514Z,155.57
2018-11-11T15:47:02.821Z,156.77
2018-11-11T15:49:32.456Z,151.53
2018-11-11T15:52:09.616Z,164.97
2018-11-11T15:54:40.977Z,166.00
2018-11-11T15:57:11.075Z,155.90
2018-11-11T15:59:38.438Z,156.07
2018-11-11T16:02:11.301Z,180.20
2018-11-11T16:04:40.465Z,186.87
2018-11-11T16:07:10.986Z,175.33
2018-11-11T16:09:41.260Z,184.63
2018-11-11T16:12:08.998Z,165.87
2018-11-11T16:14:36.360Z,170.40
2018-11-11T16:17:03.953Z,174.70
2018-11-11T16:19:31.384Z,193.43
2018-11-11T16:21:58.962Z,194.83
2018-11-11T16:24:27.442Z,186.47
2018-11-11T16:27:02.973Z,180.57
2018-11-11T16:29:32.757Z,173.23
2018-11-11T16:32:01.803Z,165.53
2018-11-11T16:34:29.214Z,159.87
2018-11-11T16:36:56.615Z,169.47
2018-11-11T16:39:24.092Z,166.53
2018-11-11T16:41:51.527Z,172.60
2018-11-11T16:44:18.953Z,173.60
2018-11-11T16:46:46.914Z,164.70
2018-11-11T16:49:14.845Z,178.13
2018-11-11T16:51:42.172Z,171.30
2018-11-11T16:54:09.604Z,170.77
2018-11-11T16:56:36.928Z,172.57
2018-11-11T16:59:04.694Z,167.70
2018-11-11T17:01:32.026Z,162.67
2018-11-11T17:04:03.496Z,173.20
2018-11-11T17:06:30.861Z,170.63
2018-11-11T17:08:58.217Z,170.53
2018-11-11T17:11:25.944Z,184.53
2018-11-11T17:13:53.297Z,170.40
2018-11-11T17:16:20.890Z,173.13
2018-11-11T17:18:48.385Z,184.27
2018-11-11T17:21:17.311Z,183.20
2018-11-11T17:23:47.561Z,186.03
2018-11-11T17:26:14.974Z,189.77
2018-11-11T17:28:42.338Z,205.43
2018-11-11T17:31:09.742Z,200.37
2018-11-11T17:33:40.803Z,210.03
2018-11-11T17:36:09.118Z,196.53
2018-11-11T17:38:37.116Z,203.60
2018-11-11T17:44:09.342Z,194.97
2018-11-11T17:46:37.342Z,182.50
2018-11-11T17:49:06.456Z,175.67
2018-11-11T17:51:35.195Z,167.37
2018-11-11T17:54:02.742Z,221.87
2018-11-11T17:56:30.714Z,205.87
2018-11-11T17:58:58.066Z,208.60
2018-11-11T18:01:25.514Z,200.37
2018-11-11T18:03:53.194Z,201.93
2018-11-11T18:06:20.623Z,182.37
2018-11-11T18:08:48.080Z,189.27
2018-11-11T18:11:15.611Z,190.60
2018-11-11T18:13:42.975Z,195.63
2018-11-11T18:16:10.329Z,188.60
2018-11-11T18:18:38.202Z,197.13
2018-11-11T18:21:05.546Z,193.37
2018-11-11T18:23:32.975Z,197.27
2018-11-11T18:26:00.330Z,196.53
2018-11-11T18:28:27.693Z,196.23
2018-11-11T18:30:55.497Z,180.13
2018-11-11T18:33:23.157Z,195.50
2018-11-11T18:35:50.570Z,191.83
2018-11-11T18:38:17.947Z,202.83
2018-11-11T18:40:45.278Z,185.23
2018-11-11T18:43:12.599Z,195.30
2018-11-11T18:45:40.370Z,184.93
2018-11-11T18:48:07.792Z,202.53
2018-11-11T18:50:35.159Z,208.73
2018-11-11T18:53:03.201Z,226.50
2018-11-11T18:55:31.079Z,210.93
2018-11-11T18:57:58.488Z,215.10
2018-11-11T19:00:31.043Z,191.77
2018-11-11T19:03:02.863Z,213.13
2018-11-11T19:05:33.014Z,201.50
2018-11-11T19:08:00.605Z,203.30
2018-11-11T19:12:10.329Z,188.03
2018-11-11T19:14:37.822Z,199.63
2018-11-11T19:17:05.337Z,188.50
2018-11-11T19:19:32.721Z,187.07
2018-11-11T19:22:00.070Z,191.30
2018-11-11T19:24:27.459Z,219.97
2018-11-11T19:26:54.957Z,187.87
2018-11-11T19:29:22.353Z,195.93
2018-11-11T19:31:49.877Z,208.03
2018-11-11T19:34:17.524Z,204.03
2018-11-11T19:36:45.194Z,199.33
2018-11-11T19:39:13.384Z,203.20
2018-11-11T19:41:41.340Z,210.33
2018-11-11T19:44:09.222Z,193.30
2018-11-11T19:46:36.667Z,194.30
2018-11-11T19:49:04.219Z,203.60
2018-11-11T19:51:31.603Z,190.40
2018-11-11T19:53:59.607Z,193.87
2018-11-11T19:56:27.618Z,210.90
2018-11-11T19:58:54.942Z,213.90
2018-11-11T20:01:22.343Z,198.17
2018-11-11T20:03:50.067Z,200.47
2018-11-11T20:06:17.403Z,223.77
2018-11-11T20:11:26.962Z,218.00
2018-11-11T20:13:54.414Z,228.33
2018-11-11T20:16:28.629Z,215.37
2018-11-11T20:18:55.992Z,216.20
2018-11-11T20:21:23.342Z,235.70
2018-11-11T20:23:50.710Z,236.70
2018-11-11T20:26:18.049Z,206.87
2018-11-11T20:28:45.430Z,208.67
2018-11-11T20:31:12.860Z,212.20
2018-11-11T20:33:40.208Z,210.40
2018-11-11T20:36:07.888Z,190.37
2018-11-11T20:38:35.246Z,202.60
2018-11-11T20:41:02.637Z,211.57
2018-11-11T20:43:31.442Z,274.97
2018-11-11T20:45:58.943Z,271.43
2018-11-11T20:48:26.434Z,266.47
2018-11-11T20:50:54.159Z,263.97
2018-11-11T20:53:21.545Z,287.03
2018-11-11T20:55:48.934Z,273.30
2018-11-11T20:58:16.295Z,280.40
2018-11-11T21:00:43.641Z,265.73
2018-11-11T21:03:10.987Z,260.47
2018-11-11T21:05:38.277Z,238.97
2018-11-11T21:08:05.806Z,237.20
2018-11-11T21:10:33.221Z,207.63
2018-11-11T21:13:00.570Z,217.53
2018-11-11T21:15:29.166Z,219.67
2018-11-11T21:17:56.530Z,249.87
2018-11-11T21:20:28.193Z,230.30
2018-11-11T21:22:55.650Z,250.83
2018-11-11T21:25:23.437Z,259.43
2018-11-11T21:27:51.429Z,291.17
2018-11-11T21:30:21.985Z,276.03
2018-11-11T21:32:49.538Z,274.37
2018-11-11T21:35:16.921Z,267.83
2018-11-11T21:37:44.539Z,274.77
2018-11-11T21:40:13.939Z,248.87
2018-11-11T21:42:44.261Z,252.23
2018-11-11T21:45:12.939Z,244.20
2018-11-11T21:47:40.765Z,234.90
2018-11-11T21:50:09.919Z,239.60
2018-11-11T21:52:37.373Z,234.67
2018-11-11T21:55:06.908Z,231.87
2018-11-11T21:57:34.432Z,235.50
2018-11-11T22:00:01.821Z,226.37
2018-11-11T22:02:29.277Z,240.67
2018-11-11T22:04:56.622Z,255.70
2018-11-11T22:07:23.974Z,279.97
2018-11-11T22:09:51.784Z,266.80
2018-11-11T22:12:19.271Z,256.50
2018-11-11T22:14:46.627Z,245.27
2018-11-11T22:17:14.067Z,239.93
2018-11-11T22:19:41.384Z,245.03
2018-11-11T22:22:08.737Z,243.90
2018-11-11T22:24:37.283Z,231.07
2018-11-11T22:27:08.651Z,256.57
2018-11-11T22:29:37.133Z,266.73
2018-11-11T22:32:04.714Z,261.17
2018-11-11T22:34:32.346Z,256.57
2018-11-11T22:36:59.797Z,264.00
2018-11-11T22:39:27.220Z,253.30
2018-11-11T22:41:54.651Z,242.80
2018-11-11T22:44:22.074Z,235.03
2018-11-11T22:46:54.179Z,225.07
2018-11-11T22:49:21.594Z,242.07
2018-11-11T22:51:48.937Z,240.47
2018-11-11T22:56:49.758Z,257.70
2018-11-11T22:59:17.756Z,248.20
2018-11-11T23:01:45.089Z,224.23
2018-11-11T23:04:12.380Z,233.17
2018-11-11T23:06:39.786Z,232.53
2018-11-11T23:09:08.893Z,243.47
2018-11-11T23:11:36.294Z,223.70
2018-11-11T23:14:06.308Z,225.63
2018-11-11T23:16:33.720Z,242.13
2018-11-11T23:19:01.097Z,234.93
2018-11-11T23:21:29.069Z,241.67
2018-11-11T23:23:56.463Z,243.73
2018-11-11T23:26:23.844Z,239.47
2018-11-11T23:28:51.310Z,250.40
2018-11-11T23:31:18.695Z,225.33
2018-11-11T23:33:46.011Z,230.37
2018-11-11T23:36:13.370Z,226.97
2018-11-11T23:38:40.799Z,242.57
2018-11-11T23:41:08.106Z,256.37
2018-11-11T23:43:35.468Z,252.93
2018-11-11T23:46:02.867Z,242.07
2018-11-11T23:48:30.290Z,244.70
2018-11-11T23:50:57.916Z,254.60
2018-11-11T23:53:25.535Z,249.50
2018-11-11T23:55:52.928Z,234.50
2018-11-11T23:58:20.622Z,237.83
